White Mountain, California
Current Conditions -  °F | °C
As of 6:56 AM on Saturday 25 Oct 2014 (Local Time) from KBIH Reporting Station
Clear Clear  
Wind Chill: 62°   Ceiling: Unl
Heat Index: 62°   Visibility: 10mi
Dew Point: 32°   Wind: 21mph
Humidity: 32%   Direction: 150°SSE
Pressure: 29.99"   Gusts: 26mph
Location:  37.5°N, 118.18°W
Report Text: KBIH 251356Z AUTO 15018G23KT 10SM CLR 17/00 A2999 RMK AO2 SLP113 T01670000
Loading
Personal Weather Stations






























Interactive Weather Map
Tropical Storm Tracking
New forecast layout! Learn more

10-Day Weather Forecast

Advertisements
Track Severe Weather on mobile